Time;durP1;ratioP1;P1;durP2;ratioP2;P2;SDS_P1;SDS_P2;PMS_P1;PMS_P2;Temp;Humidity;BMP_temperature;BMP_pressure;BME280_temperature;BME280_humidity;BME280_pressure;Samples;Min_cycle;Max_cycle;Signal;HPM_P1;HPM_P2
2022/08/26 08:32:46;;;;;;;19.25;17.95;;;;;;;;;;5151608;27;20534;-82
2022/08/26 08:35:15;;;;;;;19.25;17.95;;;;;;;;;;5150955;27;20217;-81
2022/08/26 08:37:42;;;;;;;19.30;18.00;;;;;;;;;;5150835;27;20227;-83
2022/08/26 08:40:10;;;;;;;19.23;17.92;;;;;;;;;;5151094;27;20188;-82
2022/08/26 08:42:39;;;;;;;19.38;18.08;;;;;;;;;;5151308;27;20231;-84
2022/08/26 08:45:09;;;;;;;19.60;18.30;;;;;;;;;;5150894;27;20212;-82
2022/08/26 08:47:37;;;;;;;20.02;18.63;;;;;;;;;;5150650;27;20232;-85
2022/08/26 08:50:10;;;;;;;20.90;19.20;;;;;;;;;;5151586;27;20198;-82
2022/08/26 08:52:37;;;;;;;20.48;18.98;;;;;;;;;;5150661;27;20676;-83
2022/08/26 08:55:05;;;;;;;20.80;19.30;;;;;;;;;;5150653;27;20200;-81
2022/08/26 08:57:38;;;;;;;22.58;20.88;;;;;;;;;;5150791;27;20227;-81
2022/08/26 09:00:09;;;;;;;20.65;19.15;;;;;;;;;;5150466;27;20184;-82
2022/08/26 09:02:40;;;;;;;20.75;19.15;;;;;;;;;;5150747;27;20188;-80
2022/08/26 09:05:14;;;;;;;20.65;19.05;;;;;;;;;;5150641;27;20581;-81
2022/08/26 09:07:43;;;;;;;19.98;18.48;;;;;;;;;;5150327;27;20297;-82
2022/08/26 09:10:19;;;;;;;19.88;18.38;;;;;;;;;;5150490;27;20220;-85
2022/08/26 09:12:45;;;;;;;20.00;18.50;;;;;;;;;;5150646;27;20212;-84
2022/08/26 09:15:16;;;;;;;20.13;18.63;;;;;;;;;;5150748;27;20275;-82
2022/08/26 09:17:48;;;;;;;19.92;18.45;;;;;;;;;;5150468;27;20636;-84
2022/08/26 09:20:20;;;;;;;19.85;18.38;;;;;;;;;;5150609;27;20192;-84
2022/08/26 09:22:47;;;;;;;20.33;18.83;;;;;;;;;;5150037;27;20196;-82
2022/08/26 09:25:14;;;;;;;20.15;18.65;;;;;;;;;;5150254;27;20241;-83
2022/08/26 09:27:43;;;;;;;20.80;19.20;;;;;;;;;;5149223;27;20192;-84
2022/08/26 09:30:11;;;;;;;20.05;18.55;;;;;;;;;;5150101;27;20657;-83
2022/08/26 09:32:37;;;;;;;20.30;18.80;;;;;;;;;;5141607;27;20228;-84
2022/08/26 09:35:06;;;;;;;21.08;19.45;;;;;;;;;;5136442;27;20567;-84
2022/08/26 09:37:42;;;;;;;21.13;19.50;;;;;;;;;;5136285;27;20252;-86
2022/08/26 09:40:16;;;;;;;21.70;20.00;;;;;;;;;;5136348;27;20211;-81
2022/08/26 09:42:43;;;;;;;21.25;19.65;;;;;;;;;;5135909;27;20217;-85
2022/08/26 09:45:11;;;;;;;22.30;20.60;;;;;;;;;;5135847;27;20242;-82
2022/08/26 09:47:40;;;;;;;22.20;20.50;;;;;;;;;;5135875;27;20202;-83
2022/08/26 09:50:11;;;;;;;22.00;20.30;;;;;;;;;;5135794;27;20196;-86
2022/08/26 09:52:38;;;;;;;21.88;20.17;;;;;;;;;;5135936;27;20215;-78
2022/08/26 09:55:11;;;;;;;22.25;20.45;;;;;;;;;;5135634;27;20684;-84
2022/08/26 09:57:45;;;;;;;22.77;20.98;;;;;;;;;;5135532;27;20185;-84
2022/08/26 10:00:24;;;;;;;22.77;20.98;;;;;;;;;;5136180;27;20188;-83
2022/08/26 10:02:51;;;;;;;22.70;20.90;;;;;;;;;;5135833;27;20192;-82
2022/08/26 10:05:27;;;;;;;22.40;20.60;;;;;;;;;;5135506;27;20235;-82
2022/08/26 10:07:54;;;;;;;22.58;20.88;;;;;;;;;;5135496;27;20191;-83
2022/08/26 10:10:25;;;;;;;22.02;20.33;;;;;;;;;;5135567;27;20257;-86
2022/08/26 10:12:55;;;;;;;22.10;20.40;;;;;;;;;;5135338;27;20181;-82
2022/08/26 10:15:24;;;;;;;38.53;35.22;;;;;;;;;;5135582;27;20263;-83
2022/08/26 10:17:53;;;;;;;22.58;20.77;;;;;;;;;;5135212;27;20676;-81
2022/08/26 10:20:23;;;;;;;21.58;19.98;;;;;;;;;;5135379;27;20192;-84
2022/08/26 10:22:52;;;;;;;21.80;20.10;;;;;;;;;;5135389;27;20204;-82
2022/08/26 10:25:24;;;;;;;21.77;20.10;;;;;;;;;;5134886;27;20188;-82
2022/08/26 10:27:58;;;;;;;21.85;20.15;;;;;;;;;;5135010;27;20193;-82
2022/08/26 10:30:29;;;;;;;23.10;21.30;;;;;;;;;;5134951;27;20263;-84
2022/08/26 10:32:58;;;;;;;22.15;20.45;;;;;;;;;;5135180;27;20239;-82
2022/08/26 10:35:25;;;;;;;24.50;22.15;;;;;;;;;;5134768;27;20196;-82
2022/08/26 10:37:53;;;;;;;22.52;20.83;;;;;;;;;;5135064;27;20323;-82
2022/08/26 10:40:24;;;;;;;22.08;20.38;;;;;;;;;;5134771;27;20657;-80
2022/08/26 10:42:55;;;;;;;22.33;20.63;;;;;;;;;;5134624;27;20259;-84
2022/08/26 10:45:24;;;;;;;22.65;20.85;;;;;;;;;;5133028;27;20231;-81
2022/08/26 10:47:54;;;;;;;22.23;20.42;;;;;;;;;;5134552;27;20228;-83
2022/08/26 10:50:22;;;;;;;22.35;20.60;;;;;;;;;;5134566;27;20196;-83
2022/08/26 10:52:55;;;;;;;23.00;21.20;;;;;;;;;;5134547;27;20214;-82
2022/08/26 10:55:25;;;;;;;22.85;21.05;;;;;;;;;;5134403;27;20218;-82
2022/08/26 10:57:56;;;;;;;23.05;21.25;;;;;;;;;;5134406;27;20193;-84
2022/08/26 11:03:13;;;;;;;23.80;21.90;;;;;;;;;;5134817;27;20179;-83
2022/08/26 11:05:40;;;;;;;23.40;21.60;;;;;;;;;;5134753;27;20216;-84
2022/08/26 11:08:25;;;;;;;22.92;21.13;;;;;;;;;;5134301;27;20726;-81
2022/08/26 11:10:55;;;;;;;23.15;21.35;;;;;;;;;;5134364;27;20196;-85
2022/08/26 11:13:43;;;;;;;23.02;21.23;;;;;;;;;;5134346;27;20253;-83
2022/08/26 11:16:10;;;;;;;23.45;21.65;;;;;;;;;;5133848;27;20246;-82
2022/08/26 11:18:39;;;;;;;23.83;22.00;;;;;;;;;;5133950;27;20291;-81
2022/08/26 11:21:38;;;;;;;23.35;21.55;;;;;;;;;;5134046;27;20220;-82
2022/08/26 11:24:06;;;;;;;24.10;22.20;;;;;;;;;;5133836;27;20224;-82
2022/08/26 11:26:34;;;;;;;24.15;22.25;;;;;;;;;;5134106;27;20314;-84
2022/08/26 11:29:01;;;;;;;23.88;21.98;;;;;;;;;;5133791;27;20195;-80
2022/08/26 11:31:46;;;;;;;24.02;22.02;;;;;;;;;;5133446;27;20228;-77
2022/08/26 11:34:13;;;;;;;23.75;21.85;;;;;;;;;;5133978;27;20235;-80
2022/08/26 11:36:42;;;;;;;24.20;22.30;;;;;;;;;;5133878;27;20239;-76
2022/08/26 11:39:23;;;;;;;23.77;21.88;;;;;;;;;;5133579;27;20279;-75
2022/08/26 11:41:51;;;;;;;23.98;22.08;;;;;;;;;;5133850;27;20638;-78
2022/08/26 11:44:20;;;;;;;23.60;21.70;;;;;;;;;;5133759;27;20193;-79
2022/08/26 11:46:57;;;;;;;23.38;21.48;;;;;;;;;;5133397;27;20235;-78
2022/08/26 11:49:24;;;;;;;23.85;21.95;;;;;;;;;;5133475;27;20185;-74
2022/08/26 11:51:51;;;;;;;23.65;21.75;;;;;;;;;;5133302;27;20199;-77
2022/08/26 11:54:18;;;;;;;24.40;22.42;;;;;;;;;;5133592;27;20220;-79
2022/08/26 11:56:48;;;;;;;23.20;21.30;;;;;;;;;;5132994;27;20541;-79
2022/08/26 11:59:17;;;;;;;23.70;21.80;;;;;;;;;;5133556;27;20188;-77
2022/08/26 12:01:47;;;;;;;24.70;22.70;;;;;;;;;;5133129;27;20220;-75
2022/08/26 12:04:21;;;;;;;23.45;21.55;;;;;;;;;;5133186;27;20196;-78
2022/08/26 12:06:49;;;;;;;24.05;22.15;;;;;;;;;;5133230;27;20245;-76
2022/08/26 12:09:21;;;;;;;24.40;22.40;;;;;;;;;;5133187;27;20227;-76
2022/08/26 12:11:49;;;;;;;23.67;21.77;;;;;;;;;;5133445;27;20225;-78
2022/08/26 12:14:17;;;;;;;23.15;21.25;;;;;;;;;;5133064;27;20193;-80
2022/08/26 12:16:44;;;;;;;23.85;21.95;;;;;;;;;;5133008;27;20617;-75
2022/08/26 12:19:25;;;;;;;23.55;21.65;;;;;;;;;;5133023;28;20193;-75
2022/08/26 12:21:55;;;;;;;23.35;21.45;;;;;;;;;;5132877;28;20231;-79
2022/08/26 12:24:22;;;;;;;23.98;22.08;;;;;;;;;;5133326;28;20185;-77
2022/08/26 12:26:50;;;;;;;23.65;21.75;;;;;;;;;;5132996;27;20199;-76
2022/08/26 12:29:24;;;;;;;24.13;22.17;;;;;;;;;;5132912;28;20196;-78
2022/08/26 12:31:52;;;;;;;23.58;21.67;;;;;;;;;;5132714;28;20232;-79
2022/08/26 12:34:19;;;;;;;23.58;21.67;;;;;;;;;;5133162;28;20206;-81
2022/08/26 12:36:47;;;;;;;24.38;22.48;;;;;;;;;;5133217;27;20189;-80
2022/08/26 12:39:15;;;;;;;24.35;22.35;;;;;;;;;;5133179;27;20192;-81
2022/08/26 12:41:43;;;;;;;23.60;21.70;;;;;;;;;;5132751;28;20379;-81
2022/08/26 12:44:25;;;;;;;24.88;22.88;;;;;;;;;;5132758;28;20617;-82
2022/08/26 12:46:54;;;;;;;23.70;21.80;;;;;;;;;;5132807;27;20283;-83
2022/08/26 12:49:21;;;;;;;23.50;21.50;;;;;;;;;;5132790;28;20581;-81
2022/08/26 12:51:50;;;;;;;22.95;21.05;;;;;;;;;;5132716;27;20201;-78
2022/08/26 12:54:17;;;;;;;24.30;22.30;;;;;;;;;;5133546;28;20293;-76
2022/08/26 12:56:44;;;;;;;23.85;21.85;;;;;;;;;;5132650;28;20196;-82
2022/08/26 12:59:20;;;;;;;23.20;21.30;;;;;;;;;;5132904;28;20192;-79
2022/08/26 13:01:48;;;;;;;23.13;21.23;;;;;;;;;;5132928;27;20249;-81
2022/08/26 13:04:30;;;;;;;23.83;21.83;;;;;;;;;;5132443;27;20203;-78
2022/08/26 13:07:12;;;;;;;23.02;21.13;;;;;;;;;;5129677;27;20193;-79
2022/08/26 13:09:41;;;;;;;23.38;21.48;;;;;;;;;;5136640;27;20180;-78
2022/08/26 13:12:08;;;;;;;22.77;20.88;;;;;;;;;;5136405;27;20629;-79
2022/08/26 13:14:34;;;;;;;23.38;21.48;;;;;;;;;;5136435;27;20197;-80
2022/08/26 13:17:02;;;;;;;24.48;22.38;;;;;;;;;;5136317;27;20188;-79
2022/08/26 13:19:29;;;;;;;22.90;21.00;;;;;;;;;;5136590;27;20242;-78
2022/08/26 13:21:56;;;;;;;23.48;21.58;;;;;;;;;;5136489;27;20242;-78
2022/08/26 13:24:26;;;;;;;22.95;21.05;;;;;;;;;;5136539;27;20196;-80
2022/08/26 13:26:54;;;;;;;22.83;20.92;;;;;;;;;;5136459;27;20275;-79
2022/08/26 13:29:20;;;;;;;23.25;21.35;;;;;;;;;;5136349;27;20219;-74
2022/08/26 13:31:47;;;;;;;22.65;20.75;;;;;;;;;;5135818;27;20265;-78
2022/08/26 13:34:16;;;;;;;23.27;21.38;;;;;;;;;;5136313;27;20196;-78
2022/08/26 13:36:43;;;;;;;22.55;20.65;;;;;;;;;;5136300;27;20192;-81
2022/08/26 13:39:10;;;;;;;23.98;22.08;;;;;;;;;;5135975;27;20654;-77
2022/08/26 13:41:37;;;;;;;23.02;21.13;;;;;;;;;;5135763;27;20224;-81
2022/08/26 13:44:06;;;;;;;23.08;21.17;;;;;;;;;;5135807;27;20188;-80
2022/08/26 13:46:32;;;;;;;23.67;21.67;;;;;;;;;;5135725;27;20224;-77
2022/08/26 13:48:59;;;;;;;24.45;22.45;;;;;;;;;;5135740;27;20228;-80
2022/08/26 13:51:27;;;;;;;24.70;22.70;;;;;;;;;;5136000;27;20196;-78
2022/08/26 13:53:54;;;;;;;23.65;21.65;;;;;;;;;;5135573;27;20196;-79
2022/08/26 13:56:21;;;;;;;23.73;21.73;;;;;;;;;;5135926;27;20192;-81
2022/08/26 13:58:48;;;;;;;23.05;21.15;;;;;;;;;;5135840;27;20207;-81
2022/08/26 14:01:17;;;;;;;23.75;21.75;;;;;;;;;;5135849;27;20249;-80
2022/08/26 14:03:44;;;;;;;22.88;20.88;;;;;;;;;;5135666;27;20232;-78
2022/08/26 14:06:11;;;;;;;24.85;22.63;;;;;;;;;;5135381;27;20192;-83
2022/08/26 14:08:38;;;;;;;23.70;21.70;;;;;;;;;;5135657;27;20193;-80
2022/08/26 14:11:05;;;;;;;23.30;21.30;;;;;;;;;;5135242;27;20192;-78
2022/08/26 14:13:32;;;;;;;23.50;21.50;;;;;;;;;;5135636;27;20241;-79
2022/08/26 14:16:00;;;;;;;23.35;21.35;;;;;;;;;;5135174;27;20237;-80
2022/08/26 14:18:29;;;;;;;23.00;21.00;;;;;;;;;;5135382;27;20192;-78
2022/08/26 14:20:56;;;;;;;23.10;21.10;;;;;;;;;;5135151;27;20659;-80
2022/08/26 14:23:24;;;;;;;22.98;20.98;;;;;;;;;;5134981;27;20242;-77
2022/08/26 14:25:51;;;;;;;22.70;20.75;;;;;;;;;;5135000;27;20192;-79
2022/08/26 14:28:17;;;;;;;22.83;20.85;;;;;;;;;;5135279;27;20196;-78
2022/08/26 14:30:47;;;;;;;23.00;21.00;;;;;;;;;;5135043;27;20285;-81
2022/08/26 14:33:15;;;;;;;23.23;21.23;;;;;;;;;;5134888;27;20685;-81
2022/08/26 14:35:43;;;;;;;22.85;20.85;;;;;;;;;;5134818;27;20279;-80
2022/08/26 14:38:10;;;;;;;22.85;20.88;;;;;;;;;;5135083;27;20580;-78
2022/08/26 14:40:39;;;;;;;23.15;21.15;;;;;;;;;;5135059;27;20197;-80
2022/08/26 14:43:06;;;;;;;23.15;21.15;;;;;;;;;;5134557;27;20719;-79
2022/08/26 14:45:37;;;;;;;23.75;21.75;;;;;;;;;;5134523;27;20189;-82
2022/08/26 14:48:04;;;;;;;23.95;21.95;;;;;;;;;;5134580;27;20612;-73
2022/08/26 14:50:31;;;;;;;23.58;21.58;;;;;;;;;;5134787;27;20657;-81
2022/08/26 14:55:43;;;;;;;23.83;21.83;;;;;;;;;;5134809;27;20184;-78
2022/08/26 14:58:10;;;;;;;23.90;21.90;;;;;;;;;;5134681;27;20192;-75
2022/08/26 15:00:37;;;;;;;24.00;22.00;;;;;;;;;;5134653;27;20722;-77
2022/08/26 15:03:04;;;;;;;23.65;21.65;;;;;;;;;;5134529;27;20224;-79
2022/08/26 15:05:31;;;;;;;24.83;22.52;;;;;;;;;;5134567;27;20200;-75
2022/08/26 15:07:59;;;;;;;23.52;21.52;;;;;;;;;;5134124;27;20200;-78
2022/08/26 15:10:26;;;;;;;23.38;21.38;;;;;;;;;;5134098;27;20199;-78
2022/08/26 15:12:53;;;;;;;23.35;21.35;;;;;;;;;;5134077;27;20193;-78
2022/08/26 15:15:19;;;;;;;23.63;21.63;;;;;;;;;;5134073;27;20200;-78
2022/08/26 15:17:46;;;;;;;23.50;21.50;;;;;;;;;;5135115;27;20196;-80
2022/08/26 15:20:13;;;;;;;26.52;23.85;;;;;;;;;;5134712;27;20666;-78
2022/08/26 15:22:41;;;;;;;23.05;21.05;;;;;;;;;;5133860;27;20267;-77
2022/08/26 15:25:09;;;;;;;22.70;20.73;;;;;;;;;;5134108;27;20305;-80
2022/08/26 15:27:36;;;;;;;23.85;21.85;;;;;;;;;;5134133;27;20199;-76
2022/08/26 15:30:04;;;;;;;22.77;20.77;;;;;;;;;;5133583;27;20249;-80
2022/08/26 15:32:30;;;;;;;23.95;21.95;;;;;;;;;;5133515;27;20689;-80
2022/08/26 15:34:57;;;;;;;22.58;20.67;;;;;;;;;;5134023;27;20194;-79
2022/08/26 15:37:24;;;;;;;23.67;21.58;;;;;;;;;;5133573;27;20231;-79
2022/08/26 15:39:51;;;;;;;22.98;20.98;;;;;;;;;;5133929;27;20304;-77
2022/08/26 15:42:20;;;;;;;22.58;20.65;;;;;;;;;;5133447;27;20188;-79
2022/08/26 15:44:47;;;;;;;22.67;20.67;;;;;;;;;;5133852;27;20192;-79
2022/08/26 15:47:14;;;;;;;22.67;20.67;;;;;;;;;;5133446;27;20243;-79
2022/08/26 15:49:40;;;;;;;23.27;21.27;;;;;;;;;;5133739;27;20224;-78
2022/08/26 15:52:08;;;;;;;23.15;21.15;;;;;;;;;;5133737;27;20196;-78
2022/08/26 15:54:35;;;;;;;23.30;21.30;;;;;;;;;;5133666;27;20192;-77
2022/08/26 15:57:02;;;;;;;23.23;21.23;;;;;;;;;;5133351;27;20189;-77
2022/08/26 15:59:30;;;;;;;24.02;22.02;;;;;;;;;;5133618;27;20654;-75
2022/08/26 16:01:57;;;;;;;23.98;21.98;;;;;;;;;;5134366;27;20573;-75
2022/08/26 16:04:24;;;;;;;23.70;21.80;;;;;;;;;;5133422;27;20228;-74
2022/08/26 16:06:51;;;;;;;24.15;22.15;;;;;;;;;;5133441;27;20193;-73
2022/08/26 16:09:18;;;;;;;23.67;21.67;;;;;;;;;;5133172;27;20744;-75
2022/08/26 16:11:44;;;;;;;24.83;22.83;;;;;;;;;;5133506;27;20649;-77
2022/08/26 16:14:11;;;;;;;25.13;23.13;;;;;;;;;;5133024;27;20658;-74
2022/08/26 16:16:39;;;;;;;23.23;21.23;;;;;;;;;;5133115;27;20722;-76
2022/08/26 16:19:07;;;;;;;24.05;22.05;;;;;;;;;;5133034;27;20253;-77
2022/08/26 16:21:34;;;;;;;22.98;21.08;;;;;;;;;;5133051;28;20717;-73
2022/08/26 16:24:00;;;;;;;31.08;28.55;;;;;;;;;;5132883;28;20271;-75
2022/08/26 16:26:28;;;;;;;22.85;20.95;;;;;;;;;;5133264;27;20245;-76
2022/08/26 16:28:54;;;;;;;24.02;22.02;;;;;;;;;;5132976;28;20704;-77
2022/08/26 16:31:21;;;;;;;23.20;21.20;;;;;;;;;;5132992;27;20251;-75
2022/08/26 16:33:50;;;;;;;23.58;21.58;;;;;;;;;;5133207;28;20220;-75
2022/08/26 16:36:17;;;;;;;23.70;21.75;;;;;;;;;;5133037;28;20231;-75
2022/08/26 16:38:48;;;;;;;23.50;21.50;;;;;;;;;;5133142;27;20201;-76
2022/08/26 16:41:15;;;;;;;22.85;20.95;;;;;;;;;;5132917;27;20216;-75
2022/08/26 16:43:42;;;;;;;23.17;21.25;;;;;;;;;;5136043;27;20310;-74
2022/08/26 16:46:12;;;;;;;22.80;20.90;;;;;;;;;;5137273;27;20245;-74
2022/08/26 16:48:39;;;;;;;28.25;24.50;;;;;;;;;;5137241;27;20191;-76
2022/08/26 16:51:11;;;;;;;23.73;21.73;;;;;;;;;;5137203;27;20618;-76
2022/08/26 16:53:38;;;;;;;22.95;21.05;;;;;;;;;;5137156;27;20180;-76
2022/08/26 16:56:05;;;;;;;22.75;20.85;;;;;;;;;;5136869;27;20709;-76
2022/08/26 16:58:32;;;;;;;22.80;20.90;;;;;;;;;;5136723;27;20283;-76
2022/08/26 17:00:58;;;;;;;22.90;21.00;;;;;;;;;;5136993;27;20253;-75
2022/08/26 17:03:26;;;;;;;22.65;20.75;;;;;;;;;;5136528;27;20607;-75
2022/08/26 17:05:53;;;;;;;22.70;20.80;;;;;;;;;;5136740;27;20588;-75
2022/08/26 17:08:21;;;;;;;22.25;20.45;;;;;;;;;;5136540;27;20193;-74
2022/08/26 17:10:48;;;;;;;22.15;20.35;;;;;;;;;;5137029;27;20245;-75
2022/08/26 17:13:14;;;;;;;22.42;20.55;;;;;;;;;;5136420;27;20235;-75
2022/08/26 17:15:44;;;;;;;21.95;20.15;;;;;;;;;;5136663;27;20196;-74
2022/08/26 17:18:11;;;;;;;21.77;19.98;;;;;;;;;;5136604;27;20197;-75
2022/08/26 17:20:38;;;;;;;22.67;20.88;;;;;;;;;;5136557;27;20192;-73
2022/08/26 17:23:05;;;;;;;22.58;20.63;;;;;;;;;;5136131;27;20658;-76
2022/08/26 17:25:33;;;;;;;22.08;20.27;;;;;;;;;;5136198;27;20192;-74
2022/08/26 17:28:00;;;;;;;21.83;20.02;;;;;;;;;;5136811;27;20238;-74
2022/08/26 17:30:26;;;;;;;22.10;20.30;;;;;;;;;;5137163;27;20193;-74
2022/08/26 17:32:53;;;;;;;21.75;19.95;;;;;;;;;;5136117;27;20223;-77
2022/08/26 17:35:20;;;;;;;21.75;19.95;;;;;;;;;;5136549;27;20368;-74
2022/08/26 17:37:46;;;;;;;21.48;19.77;;;;;;;;;;5136299;27;20200;-75
2022/08/26 17:40:16;;;;;;;23.23;21.23;;;;;;;;;;5135985;27;20629;-73
2022/08/26 17:42:44;;;;;;;21.98;20.17;;;;;;;;;;5135861;27;20726;-74
2022/08/26 17:45:11;;;;;;;21.42;19.65;;;;;;;;;;5136161;27;20562;-74
2022/08/26 17:47:38;;;;;;;21.83;20.02;;;;;;;;;;5136081;27;20598;-73
2022/08/26 17:50:05;;;;;;;21.95;20.15;;;;;;;;;;5135751;27;20206;-74
2022/08/26 17:52:32;;;;;;;21.52;19.83;;;;;;;;;;5135820;27;20280;-74
2022/08/26 17:54:59;;;;;;;21.60;19.80;;;;;;;;;;5135337;27;20232;-74
2022/08/26 17:57:25;;;;;;;21.63;19.85;;;;;;;;;;5135893;27;20218;-73
2022/08/26 17:59:54;;;;;;;22.10;20.30;;;;;;;;;;5135816;27;20188;-73
2022/08/26 18:02:21;;;;;;;21.88;20.08;;;;;;;;;;5135797;27;20654;-74
2022/08/26 18:04:48;;;;;;;21.85;20.05;;;;;;;;;;5135375;27;20228;-75
2022/08/26 18:07:15;;;;;;;23.00;21.10;;;;;;;;;;5135447;27;20188;-74
2022/08/26 18:09:41;;;;;;;22.90;21.10;;;;;;;;;;5135871;27;20199;-74
2022/08/26 18:12:08;;;;;;;23.05;21.20;;;;;;;;;;5135304;27;20196;-73
2022/08/26 18:14:35;;;;;;;21.73;19.98;;;;;;;;;;5135535;27;20192;-74
2022/08/26 18:17:03;;;;;;;22.50;20.70;;;;;;;;;;5135523;27;20192;-74
2022/08/26 18:19:30;;;;;;;23.83;21.83;;;;;;;;;;5135485;27;20192;-74
2022/08/26 18:21:57;;;;;;;22.73;20.92;;;;;;;;;;5135436;27;20192;-75
2022/08/26 18:24:23;;;;;;;22.25;20.35;;;;;;;;;;5135320;27;20304;-76
2022/08/26 18:26:50;;;;;;;22.33;20.42;;;;;;;;;;5135353;27;20203;-75
2022/08/26 18:29:18;;;;;;;22.10;20.25;;;;;;;;;;5134971;27;20650;-74
2022/08/26 18:31:45;;;;;;;22.48;20.58;;;;;;;;;;5134836;27;20228;-74
2022/08/26 18:34:14;;;;;;;22.90;21.00;;;;;;;;;;5135107;27;20200;-74
2022/08/26 18:36:41;;;;;;;22.33;20.52;;;;;;;;;;5135132;27;20735;-75
2022/08/26 18:39:08;;;;;;;22.42;20.52;;;;;;;;;;5135115;27;20200;-73
2022/08/26 18:41:39;;;;;;;23.60;21.70;;;;;;;;;;5134672;27;20227;-75
2022/08/26 18:44:07;;;;;;;23.00;21.10;;;;;;;;;;5134651;27;20208;-74
2022/08/26 18:46:34;;;;;;;22.85;20.95;;;;;;;;;;5134819;27;20202;-74
2022/08/26 18:49:01;;;;;;;22.83;20.92;;;;;;;;;;5134946;27;20192;-74
2022/08/26 18:51:30;;;;;;;22.35;20.55;;;;;;;;;;5134434;27;20198;-74
2022/08/26 18:53:58;;;;;;;21.98;20.17;;;;;;;;;;5134495;27;20672;-72
2022/08/26 18:56:24;;;;;;;22.35;20.55;;;;;;;;;;5134745;27;20197;-73
2022/08/26 18:58:51;;;;;;;22.38;20.58;;;;;;;;;;5134308;27;20228;-75
2022/08/26 19:01:18;;;;;;;23.55;21.65;;;;;;;;;;5134663;27;20253;-74
2022/08/26 19:03:46;;;;;;;22.45;20.65;;;;;;;;;;5134483;27;20255;-74
2022/08/26 19:06:13;;;;;;;23.30;21.40;;;;;;;;;;5133710;27;20196;-75
2022/08/26 19:08:41;;;;;;;23.42;21.52;;;;;;;;;;5134505;27;20232;-75
2022/08/26 19:11:08;;;;;;;22.80;21.00;;;;;;;;;;5134419;27;20196;-75
2022/08/26 19:13:36;;;;;;;23.42;21.52;;;;;;;;;;5134130;27;20226;-76
2022/08/26 19:16:03;;;;;;;22.98;21.17;;;;;;;;;;5134542;27;20199;-76
2022/08/26 19:18:31;;;;;;;23.17;21.38;;;;;;;;;;5134316;27;20197;-77
2022/08/26 19:20:58;;;;;;;22.10;20.30;;;;;;;;;;5134179;27;20220;-77
2022/08/26 19:23:25;;;;;;;23.02;21.23;;;;;;;;;;5134046;27;20219;-75
2022/08/26 19:25:53;;;;;;;23.70;21.90;;;;;;;;;;5134376;27;20219;-76
2022/08/26 19:28:20;;;;;;;23.70;21.85;;;;;;;;;;5134053;27;20189;-76
2022/08/26 19:30:48;;;;;;;23.30;21.50;;;;;;;;;;5133804;27;20753;-76
2022/08/26 19:33:15;;;;;;;23.60;21.70;;;;;;;;;;5133777;27;20653;-76
2022/08/26 19:35:43;;;;;;;23.35;21.48;;;;;;;;;;5133758;27;20189;-76
2022/08/26 19:38:09;;;;;;;22.80;21.00;;;;;;;;;;5133616;27;20245;-76
2022/08/26 19:40:37;;;;;;;22.27;20.50;;;;;;;;;;5133615;27;20195;-76
2022/08/26 19:43:06;;;;;;;22.50;20.70;;;;;;;;;;5133941;27;20643;-76
2022/08/26 19:45:33;;;;;;;22.45;20.65;;;;;;;;;;5133778;27;20281;-76
2022/08/26 19:48:00;;;;;;;22.23;20.48;;;;;;;;;;5133459;27;20651;-76
2022/08/26 19:50:27;;;;;;;22.38;20.58;;;;;;;;;;5133657;27;20224;-77
2022/08/26 19:52:54;;;;;;;22.65;20.85;;;;;;;;;;5133734;27;20235;-76
2022/08/26 19:55:21;;;;;;;22.48;20.67;;;;;;;;;;5133918;27;20200;-76
2022/08/26 19:57:48;;;;;;;22.20;20.50;;;;;;;;;;5133524;27;20287;-77
2022/08/26 20:00:18;;;;;;;21.13;19.42;;;;;;;;;;5133280;27;20199;-77
2022/08/26 20:02:45;;;;;;;21.42;19.73;;;;;;;;;;5133241;27;20666;-76
2022/08/26 20:05:13;;;;;;;21.63;20.02;;;;;;;;;;5133130;27;20582;-76
2022/08/26 20:07:40;;;;;;;21.98;20.27;;;;;;;;;;5133482;27;20245;-76
2022/08/26 20:10:08;;;;;;;22.48;20.77;;;;;;;;;;5133173;27;20316;-76
2022/08/26 20:12:35;;;;;;;22.48;20.77;;;;;;;;;;5133832;27;20600;-76
2022/08/26 20:15:03;;;;;;;21.45;19.85;;;;;;;;;;5133360;27;20192;-76
2022/08/26 20:17:31;;;;;;;21.63;19.92;;;;;;;;;;5132915;27;20244;-79
2022/08/26 20:22:42;;;;;;;21.13;19.52;;;;;;;;;;5133143;28;20202;-76
2022/08/26 20:25:09;;;;;;;21.30;19.70;;;;;;;;;;5133112;28;20278;-76
2022/08/26 20:27:36;;;;;;;22.60;20.90;;;;;;;;;;5133220;28;20203;-76
2022/08/26 20:30:03;;;;;;;21.10;19.50;;;;;;;;;;5133146;28;20271;-76
2022/08/26 20:32:32;;;;;;;20.58;19.08;;;;;;;;;;5132765;28;20311;-76
2022/08/26 20:34:59;;;;;;;20.63;19.05;;;;;;;;;;5133171;28;20188;-76
2022/08/26 20:37:28;;;;;;;20.55;19.05;;;;;;;;;;5133094;28;20203;-75
2022/08/26 20:39:55;;;;;;;20.50;19.00;;;;;;;;;;5132847;27;20189;-75
2022/08/26 20:42:22;;;;;;;20.45;18.95;;;;;;;;;;5132797;28;20204;-76
2022/08/26 20:44:48;;;;;;;20.15;18.73;;;;;;;;;;5133255;28;20225;-75
2022/08/26 20:47:15;;;;;;;19.67;18.27;;;;;;;;;;5132837;27;20195;-76
2022/08/26 20:49:43;;;;;;;19.45;18.08;;;;;;;;;;5133074;28;20326;-75
2022/08/26 20:52:10;;;;;;;19.58;18.17;;;;;;;;;;5132979;28;20225;-75
2022/08/26 20:54:37;;;;;;;19.40;18.10;;;;;;;;;;5133003;27;20224;-75
2022/08/26 20:57:03;;;;;;;19.80;18.40;;;;;;;;;;5132988;28;20619;-75
2022/08/26 20:59:30;;;;;;;19.63;18.30;;;;;;;;;;5132988;27;20192;-75
2022/08/26 21:01:57;;;;;;;19.50;18.20;;;;;;;;;;5132926;28;20262;-75
2022/08/26 21:04:26;;;;;;;19.30;18.00;;;;;;;;;;5132761;28;20220;-75
2022/08/26 21:06:54;;;;;;;20.70;19.30;;;;;;;;;;5132804;28;20196;-75
2022/08/26 21:09:21;;;;;;;19.17;17.88;;;;;;;;;;5132546;28;20280;-75
2022/08/26 21:11:48;;;;;;;19.20;17.90;;;;;;;;;;5133839;28;20215;-76
2022/08/26 21:14:15;;;;;;;19.27;17.98;;;;;;;;;;5132500;28;20203;-75
2022/08/26 21:16:42;;;;;;;19.30;18.00;;;;;;;;;;5132517;27;20689;-75
2022/08/26 21:19:10;;;;;;;20.23;18.83;;;;;;;;;;5132475;27;20548;-75
2022/08/26 21:21:37;;;;;;;19.38;18.08;;;;;;;;;;5133613;28;20192;-75
2022/08/26 21:24:06;;;;;;;19.30;18.00;;;;;;;;;;5132295;28;20199;-75
2022/08/26 21:26:33;;;;;;;19.73;18.40;;;;;;;;;;5132786;27;20604;-75
2022/08/26 21:29:00;;;;;;;19.35;18.05;;;;;;;;;;5134551;27;20589;-74
2022/08/26 21:31:28;;;;;;;19.15;17.85;;;;;;;;;;5136030;27;20729;-75
2022/08/26 21:33:56;;;;;;;18.98;17.67;;;;;;;;;;5136372;27;20279;-76
2022/08/26 21:36:22;;;;;;;19.70;18.30;;;;;;;;;;5136002;27;20658;-77
2022/08/26 21:38:49;;;;;;;19.75;18.35;;;;;;;;;;5136354;27;20653;-76
2022/08/26 21:41:19;;;;;;;20.02;18.63;;;;;;;;;;5136411;27;20234;-77
2022/08/26 21:43:47;;;;;;;20.52;19.02;;;;;;;;;;5135953;27;20184;-77
2022/08/26 21:46:16;;;;;;;20.40;18.90;;;;;;;;;;5136096;27;20223;-75
2022/08/26 21:48:44;;;;;;;20.55;19.05;;;;;;;;;;5136120;27;20275;-76
2022/08/26 21:51:11;;;;;;;20.38;18.88;;;;;;;;;;5135788;27;20196;-76
2022/08/26 21:53:38;;;;;;;20.38;18.88;;;;;;;;;;5135711;27;20192;-76
2022/08/26 21:56:06;;;;;;;20.20;18.70;;;;;;;;;;5135637;27;20291;-76
2022/08/26 21:58:34;;;;;;;20.60;19.10;;;;;;;;;;5135839;27;20200;-76
2022/08/26 22:01:01;;;;;;;20.00;18.60;;;;;;;;;;5135899;27;20193;-76
2022/08/26 22:03:28;;;;;;;20.02;18.63;;;;;;;;;;5135850;27;20253;-76
2022/08/26 22:05:54;;;;;;;19.98;18.58;;;;;;;;;;5135703;27;20256;-76
2022/08/26 22:08:22;;;;;;;19.67;18.27;;;;;;;;;;5135387;27;20284;-76
2022/08/26 22:10:50;;;;;;;19.58;18.17;;;;;;;;;;5135381;27;20287;-76
2022/08/26 22:13:18;;;;;;;19.70;18.30;;;;;;;;;;5135286;27;20196;-76
2022/08/26 22:15:47;;;;;;;20.00;18.60;;;;;;;;;;5135251;27;20199;-76
2022/08/26 22:18:14;;;;;;;19.27;17.98;;;;;;;;;;5135515;27;20196;-76
2022/08/26 22:20:41;;;;;;;19.77;18.38;;;;;;;;;;5135729;27;20272;-77
2022/08/26 22:23:07;;;;;;;19.42;18.02;;;;;;;;;;5135405;27;20253;-76
2022/08/26 22:25:34;;;;;;;19.33;17.98;;;;;;;;;;5135318;27;20266;-75
2022/08/26 22:28:01;;;;;;;21.35;19.48;;;;;;;;;;5135307;27;20216;-76
2022/08/26 22:30:27;;;;;;;19.27;17.88;;;;;;;;;;5134760;27;20253;-76
2022/08/26 22:32:56;;;;;;;19.25;17.95;;;;;;;;;;5134974;27;20272;-76
2022/08/26 22:35:22;;;;;;;19.35;18.05;;;;;;;;;;5135153;27;20704;-76
2022/08/26 22:37:49;;;;;;;18.95;17.65;;;;;;;;;;5135143;27;20196;-76
2022/08/26 22:40:16;;;;;;;19.10;17.80;;;;;;;;;;5135033;27;20220;-76
2022/08/26 22:42:43;;;;;;;18.80;17.52;;;;;;;;;;5135094;27;20620;-76
2022/08/26 22:45:11;;;;;;;19.25;18.05;;;;;;;;;;5135156;27;20220;-76
2022/08/26 22:47:37;;;;;;;18.88;17.67;;;;;;;;;;5134630;27;20199;-76
2022/08/26 22:50:07;;;;;;;18.67;17.48;;;;;;;;;;5134906;27;20192;-76
2022/08/26 22:52:34;;;;;;;18.75;17.55;;;;;;;;;;5134781;27;20188;-76
2022/08/26 22:55:01;;;;;;;18.90;17.70;;;;;;;;;;5134804;27;20197;-75
2022/08/26 22:57:28;;;;;;;18.73;17.52;;;;;;;;;;5134709;27;20643;-77
2022/08/26 22:59:54;;;;;;;18.60;17.40;;;;;;;;;;5134400;27;20650;-76
2022/08/26 23:02:21;;;;;;;18.27;17.17;;;;;;;;;;5134655;27;20237;-76